Flight Track Log - Related Links

Times and Time Zones

All times are in EDT time to prevent confusion due to time zone crossing. See the N50KC flight status page for this flight to view local times or setup timezone preferences in your user account.

Time Position Orientation Groundspeed Altitude Reporting Facility
EDT Latitude Longitude Course Direction KTS MPH feet Rate Location/Type
Fri 05:49:58 PM 40.8833 -74.0333 348° North 194 223 1,900  Level New York TRACON
Fri 05:51:04 PM 40.9167 -74.1000 304° West 242 278 2,000 1,143 Climbing New York TRACON
Fri 05:52:04 PM 40.9167 -74.2000 270° West 275 316 4,300 2,000 Climbing New York TRACON
Fri 05:53:04 PM 40.9833 -74.2167 349° North 280 322 6,000 895 Climbing New York TRACON
Fri 05:53:58 PM 41.0500 -74.1833 21° North 269 310 6,000  Level New York TRACON
Fri 05:55:00 PM 41.1292 -74.1276 348° North  Level FlightAware Approximate
Fri 05:55:04 PM 41.1333 -74.1333 24° Northeast 273 314 6,000  Level New York TRACON
Fri 05:55:58 PM 41.1667 -74.0833 48° Northeast 268 308 6,000 -150 Level New York TRACON
Fri 05:57:04 PM 41.2000 -73.9667 69° East 263 303 5,700 -500 Descending New York TRACON
Fri 05:57:58 PM 41.2167 -73.9000 72° East 260 299 5,000 -368 Descending New York TRACON
Fri 05:58:58 PM 41.2333 -73.8000 77° East 261 300 5,000  Level New York TRACON
Fri 05:59:58 PM 41.2500 -73.7167 75° East 259 298 5,000  Level New York TRACON
Fri 06:00:58 PM 41.2667 -73.6167 77° East 255 293 5,000  Level New York TRACON
Fri 06:01:58 PM 41.2667 -73.5333 90° East 256 295 5,000 -150 Level New York TRACON
Fri 06:02:58 PM 41.2667 -73.4333 90° East 256 295 4,700 -650 Descending New York TRACON
Fri 06:03:58 PM 41.2500 -73.3500 105° East 253 291 3,700 -857 Descending New York TRACON
Fri 06:05:04 PM 41.2667 -73.2500 77° East 240 276 2,900 -450 Descending New York TRACON
Fri 06:05:58 PM 41.2833 -73.1833 72° East 203 234 2,800 -263 Descending New York TRACON
Fri 06:06:58 PM 41.3000 -73.1167 72° East 181 208 2,400 -200 Descending New York TRACON
Fri 06:07:58 PM 41.3500 -73.1167 360° North 160 184 2,400 -100 Level New York TRACON
Fri 06:08:58 PM 41.4000 -73.1167 360° North 165 190 2,200 -400 Descending New York TRACON
Fri 06:09:58 PM 41.4333 -73.1167 360° North 125 144 1,600 -619 Descending New York TRACON
Fri 06:11:04 PM 41.4667 -73.1333 339° North 119 137 900 -350 Descending New York TRACON
Fri 06:11:58 PM 41.4833 -73.1333 360° North 119 137 900  Level New York TRACON

Login

Don't have an account? Register now (free) for customized features, flight alerts, and more!